Airfield :
LOGIN :

Register | Disclaimer

   EN    FR    IT 

 










Legend :    VFR   Marginal VFR   IFR   Intensive IFR   Very Intensive IFR
Visi :
Ceiling :
>= 8 km
>= 3000ft
5 to 8 km
1000 to 3000 ft
1500m to 5 km
500 to 1000 ft
800 to 1500m
200 to 500 ft
< 800m
< 200 ft
Symbols :   Thunderstorms  Fog  Heavy snow  Heavy precipitations  Wind > 20 kt
SIGMETs :     Misc.  Thunderstorms  Icing  Turbulence  Mountain Waves  Volcanic Ashes






- Airport Elevation : 512 ft
- IATA code : URO


LFOP - Rouen Vallée de Seine

CURRENT METAR :
  • 271730Z AUTO 31014KT 9999 SCT031 BKN039 BKN047 05/01 Q1009 BECMG 24005KT

EXPIRED METARs :
  • 271700Z AUTO 31014KT 270V330 9999 SCT032 BKN043 06/00 Q1008 NOSIG
  • 271630Z AUTO 32017KT 9999 FEW028 SCT033 BKN047 06/01 Q1008 BECMG 24005KT
  • 271600Z AUTO 32017G29KT 9999 BKN027 OVC037 07/02 Q1007 BECMG 31013KT
  • 271530Z AUTO 31019G30KT 9999 BKN026 OVC034 06/01 Q1006 BECMG 31013KT
  • 271500Z AUTO 32018KT 9999 BKN023 OVC031 06/02 Q1004 NOSIG

TAF TAF LFOP
Valid from the 27 at 12:00 until the 28 at 12:00 UTC


271100Z 2712/2812 33020G35KT 9999 OVC010
TEMPO 2712/2713 33030G45KT
BECMG 2712/2714 BKN020
BECMG 2715/2718 31013KT
BECMG 2718/2720 24005KT
BECMG 2809/2811 17015KT RA OVC012
ATIS : +33 2 35 80 80 34
Met : +33 2 32 86 52 80



MET'MAP, your aeronautical weather chart ! - Copyright ORBIFLY December 2007 - Disclaimer

ORBIFLY MET'MAP TEAM :

Programming & Development : Alexandra Zaïnal
Concept & original design : Baudouin d'Aumeries
Assistance for programming : Marc-Olivier Méhu
Technical & hardware support : Manuel Goepfert

Contact : metmap@orbifly.com




SOURCES & CREDITS :

   NOAA